Time;durP1;ratioP1;P1;durP2;ratioP2;P2;SDS_P1;SDS_P2;PMS_P1;PMS_P2;Temp;Humidity;BMP_temperature;BMP_pressure;BME280_temperature;BME280_humidity;BME280_pressure;Samples;Min_cycle;Max_cycle;Signal;HPM_P1;HPM_P2
2023/03/12 04:01:23;;;;;;;1.10;1.00;;;13.30;47.50;;;;;;5499613;23;46773;-70
2023/03/12 04:03:49;;;;;;;1.27;0.95;;;13.30;48.20;;;;;;4918273;28;45411;-67
2023/03/12 04:06:14;;;;;;;1.13;1.00;;;13.30;47.60;;;;;;4924125;28;44953;-67
2023/03/12 04:08:40;;;;;;;1.47;1.20;;;13.30;47.60;;;;;;4933372;28;46116;-67
2023/03/12 04:11:07;;;;;;;1.30;1.13;;;13.20;47.60;;;;;;4926091;28;45584;-67
2023/03/12 04:13:33;;;;;;;1.20;1.10;;;13.20;47.60;;;;;;4930695;28;45331;-69
2023/03/12 04:15:58;;;;;;;1.37;1.17;;;13.20;47.60;;;;;;4926046;28;45522;-68
2023/03/12 04:18:24;;;;;;;1.10;1.00;;;13.20;47.60;;;;;;4932231;28;45910;-67
2023/03/12 04:20:49;;;;;;;0.97;0.83;;;13.20;47.60;;;;;;4925807;28;45258;-67
2023/03/12 04:23:15;;;;;;;1.15;0.90;;;13.20;47.60;;;;;;4929644;28;45590;-65
2023/03/12 04:25:41;;;;;;;1.60;1.00;;;13.20;47.50;;;;;;4911408;28;45535;-68
2023/03/12 04:28:07;;;;;;;1.33;1.15;;;13.20;47.50;;;;;;4935521;28;45975;-67
2023/03/12 04:30:32;;;;;;;1.10;1.00;;;13.30;47.60;;;;;;4924063;28;45566;-69
2023/03/12 04:32:58;;;;;;;1.38;1.00;;;13.20;47.60;;;;;;4926798;28;45203;-66
2023/03/12 04:35:23;;;;;;;1.52;1.10;;;13.20;47.60;;;;;;4927142;28;45487;-66
2023/03/12 04:37:50;;;;;;;1.13;1.00;;;13.20;47.50;;;;;;4931528;28;45415;-67
2023/03/12 04:40:17;;;;;;;1.58;1.10;;;13.20;47.60;;;;;;4927562;28;45532;-68
2023/03/12 04:42:43;;;;;;;2.17;1.10;;;13.20;47.60;;;;;;4929455;28;46199;-70
2023/03/12 04:45:10;;;;;;;0.87;0.87;;;13.20;47.60;;;;;;4927587;28;45537;-65
2023/03/12 04:47:35;;;;;;;1.50;1.10;;;13.20;47.50;;;;;;4911503;28;46093;-68
2023/03/12 04:50:01;;;;;;;1.38;1.10;;;13.20;47.60;;;;;;4935137;28;45300;-65
2023/03/12 04:52:26;;;;;;;1.25;1.15;;;13.20;47.60;;;;;;4930256;28;45079;-67
2023/03/12 04:54:53;;;;;;;1.40;1.10;;;13.20;47.60;;;;;;4933665;28;45537;-65
2023/03/12 04:57:19;;;;;;;1.35;1.20;;;13.20;47.60;;;;;;4926209;28;45590;-70
2023/03/12 04:59:45;;;;;;;1.60;1.00;;;13.20;47.60;;;;;;4933361;28;44739;-69
2023/03/12 05:02:10;;;;;;;1.60;1.10;;;13.20;47.60;;;;;;4922048;28;45656;-65
2023/03/12 05:04:36;;;;;;;1.25;1.15;;;13.20;47.60;;;;;;4934152;28;45287;-66
2023/03/12 05:07:01;;;;;;;1.10;1.00;;;13.20;47.60;;;;;;4929124;28;45143;-67
2023/03/12 05:09:27;;;;;;;1.05;0.95;;;13.20;47.60;;;;;;4917238;28;45502;-64
2023/03/12 05:11:52;;;;;;;1.27;1.00;;;13.20;47.60;;;;;;4930881;28;45143;-65
2023/03/12 05:14:18;;;;;;;1.20;1.00;;;13.20;47.60;;;;;;4937341;28;45334;-64
2023/03/12 05:16:44;;;;;;;1.13;0.90;;;13.20;47.60;;;;;;4922610;28;46850;-64
2023/03/12 05:19:09;;;;;;;1.50;1.27;;;13.20;47.60;;;;;;4915633;28;45323;-66
2023/03/12 05:21:35;;;;;;;1.10;1.00;;;13.20;47.60;;;;;;4932442;28;45460;-67
2023/03/12 05:24:01;;;;;;;1.50;1.40;;;13.20;47.60;;;;;;4932389;28;44625;-66
2023/03/12 05:26:30;;;;;;;1.50;1.00;;;13.20;47.60;;;;;;4927351;28;45951;-65
2023/03/12 05:28:56;;;;;;;1.25;1.10;;;13.20;47.60;;;;;;4916390;28;46006;-66
2023/03/12 05:31:21;;;;;;;1.50;1.10;;;13.20;47.60;;;;;;4922444;28;45807;-66
2023/03/12 05:33:47;;;;;;;1.40;1.23;;;13.20;47.60;;;;;;4935388;28;45587;-65
2023/03/12 05:36:13;;;;;;;0.90;0.80;;;13.20;47.60;;;;;;4925954;28;46144;-64
2023/03/12 05:38:39;;;;;;;1.60;1.20;;;13.20;47.60;;;;;;4902490;28;44920;-66
2023/03/12 05:41:04;;;;;;;1.10;1.00;;;13.10;47.50;;;;;;4929489;28;45350;-64
2023/03/12 05:43:30;;;;;;;1.20;1.00;;;13.10;47.60;;;;;;4935315;28;45669;-64
2023/03/12 05:46:00;;;;;;;1.43;1.00;;;13.10;47.60;;;;;;4923917;28;45299;-67
2023/03/12 05:48:25;;;;;;;1.10;0.90;;;13.10;47.60;;;;;;4929286;28;45488;-65
2023/03/12 05:50:51;;;;;;;1.30;1.10;;;13.10;47.60;;;;;;4927830;28;45682;-64
2023/03/12 05:53:16;;;;;;;1.07;0.97;;;13.10;47.60;;;;;;4933258;28;45870;-64
2023/03/12 05:55:42;;;;;;;1.52;1.23;;;13.10;47.60;;;;;;4932799;28;46171;-67
2023/03/12 05:58:08;;;;;;;1.63;1.30;;;13.10;47.60;;;;;;4928748;28;45049;-67
2023/03/12 06:00:36;;;;;;;1.55;1.42;;;13.10;47.60;;;;;;4929650;28;45151;-65
2023/03/12 06:03:05;;;;;;;1.63;1.30;;;13.10;47.60;;;;;;4930102;28;45482;-65
2023/03/12 06:05:31;;;;;;;1.63;1.20;;;13.10;47.60;;;;;;4931331;28;46162;-64
2023/03/12 06:07:57;;;;;;;1.30;1.20;;;13.10;47.60;;;;;;4915369;28;45386;-65
2023/03/12 06:10:23;;;;;;;1.25;1.15;;;13.10;47.60;;;;;;4930255;28;45328;-66
2023/03/12 06:12:48;;;;;;;1.70;1.27;;;13.10;47.60;;;;;;4934568;28;45299;-67
2023/03/12 06:15:14;;;;;;;1.83;1.20;;;13.10;47.60;;;;;;4931390;28;46378;-72
2023/03/12 06:17:39;;;;;;;1.60;1.30;;;13.10;47.60;;;;;;4921651;28;45124;-66
2023/03/12 06:20:06;;;;;;;1.85;1.40;;;13.10;47.60;;;;;;4930767;28;45184;-73
2023/03/12 06:22:31;;;;;;;1.98;1.35;;;13.10;47.60;;;;;;4899554;28;45194;-67
2023/03/12 06:24:57;;;;;;;1.20;1.10;;;13.10;47.60;;;;;;4934075;28;45847;-70
2023/03/12 06:27:23;;;;;;;1.48;1.30;;;13.10;48.20;;;;;;4926682;28;45218;-65
2023/03/12 06:29:48;;;;;;;1.43;1.17;;;13.10;47.60;;;;;;4938533;28;45671;-66
2023/03/12 06:32:14;;;;;;;1.58;1.30;;;13.10;47.60;;;;;;4913023;28;45711;-67
2023/03/12 06:34:40;;;;;;;1.70;1.33;;;13.10;47.60;;;;;;4919588;28;46196;-69
2023/03/12 06:37:05;;;;;;;2.17;1.47;;;13.10;47.60;;;;;;4932051;28;45590;-66
2023/03/12 06:39:31;;;;;;;2.17;1.60;;;13.10;47.60;;;;;;4936288;28;45359;-68
2023/03/12 06:41:56;;;;;;;2.28;1.58;;;13.10;47.60;;;;;;4931026;28;44724;-66
2023/03/12 06:44:22;;;;;;;1.83;1.30;;;13.10;47.60;;;;;;4935659;28;46802;-67
2023/03/12 06:46:48;;;;;;;1.70;1.40;;;13.10;47.60;;;;;;4927431;28;45728;-64
2023/03/12 06:49:13;;;;;;;1.90;1.40;;;13.10;47.60;;;;;;4934498;28;45470;-70
2023/03/12 06:51:39;;;;;;;2.00;1.33;;;13.10;47.60;;;;;;4913658;28;45286;-65
2023/03/12 06:54:04;;;;;;;1.63;1.33;;;13.10;47.50;;;;;;4938568;28;46346;-66
2023/03/12 06:56:30;;;;;;;1.90;1.50;;;13.10;47.50;;;;;;4927834;28;45571;-66
2023/03/12 06:58:56;;;;;;;1.73;1.50;;;13.10;47.50;;;;;;4932962;28;44752;-65
2023/03/12 07:01:21;;;;;;;2.22;1.50;;;13.10;47.50;;;;;;4923065;28;46635;-65
2023/03/12 07:03:47;;;;;;;1.47;1.33;;;13.10;47.50;;;;;;4933374;28;45946;-67
2023/03/12 07:06:14;;;;;;;1.77;1.27;;;13.10;47.50;;;;;;4930348;28;45316;-66
2023/03/12 07:08:39;;;;;;;1.75;1.38;;;13.10;47.50;;;;;;4934098;28;46169;-69
2023/03/12 07:11:05;;;;;;;1.60;1.37;;;13.20;47.50;;;;;;4926410;28;45301;-68
2023/03/12 07:13:30;;;;;;;2.03;1.50;;;13.20;47.50;;;;;;4936406;28;45984;-65
2023/03/12 07:15:56;;;;;;;1.40;1.30;;;13.10;47.40;;;;;;4927193;28;45639;-63
2023/03/12 07:18:21;;;;;;;1.77;1.30;;;13.10;47.50;;;;;;4935563;28;45297;-65
2023/03/12 07:20:47;;;;;;;1.50;1.30;;;13.10;47.50;;;;;;4930932;28;44886;-64
2023/03/12 07:23:13;;;;;;;1.42;1.20;;;13.10;47.50;;;;;;4933171;28;46915;-67
2023/03/12 07:25:39;;;;;;;1.77;1.33;;;13.10;47.50;;;;;;4928707;28;45579;-69
2023/03/12 07:28:05;;;;;;;1.75;1.35;;;13.10;47.50;;;;;;4935173;28;45491;-64
2023/03/12 07:30:32;;;;;;;1.80;1.58;;;13.10;47.50;;;;;;4928247;28;45265;-66
2023/03/12 07:33:01;;;;;;;2.10;1.50;;;13.10;47.50;;;;;;4902724;28;46024;-65
2023/03/12 07:35:28;;;;;;;1.70;1.40;;;13.10;47.50;;;;;;4931037;28;45326;-70
2023/03/12 07:37:53;;;;;;;1.50;1.10;;;13.10;47.50;;;;;;4933170;28;45490;-71
2023/03/12 07:40:19;;;;;;;2.03;1.40;;;13.10;47.50;;;;;;4930282;28;45499;-68
2023/03/12 07:42:44;;;;;;;1.90;1.43;;;13.10;47.50;;;;;;4934157;28;45671;-69
2023/03/12 07:45:10;;;;;;;1.95;1.40;;;13.10;47.40;;;;;;4931840;28;45175;-72
2023/03/12 07:47:36;;;;;;;1.50;1.30;;;13.10;47.40;;;;;;4918392;28;44997;-64
2023/03/12 07:50:02;;;;;;;1.65;1.30;;;13.10;47.50;;;;;;4935353;28;45386;-66
2023/03/12 07:52:27;;;;;;;1.67;1.37;;;13.20;47.50;;;;;;4929555;28;45956;-64
2023/03/12 07:54:55;;;;;;;1.88;1.45;;;13.10;47.40;;;;;;4936519;28;44985;-68
2023/03/12 07:57:21;;;;;;;1.85;1.45;;;13.10;47.40;;;;;;4931604;28;45796;-65
2023/03/12 07:59:46;;;;;;;1.73;1.30;;;13.10;47.40;;;;;;4934722;28;45243;-65
2023/03/12 08:02:12;;;;;;;2.20;1.60;;;13.10;47.40;;;;;;4919383;28;46343;-71
2023/03/12 08:04:37;;;;;;;1.63;1.20;;;13.10;47.50;;;;;;4931545;28;44675;-67
2023/03/12 08:07:03;;;;;;;2.10;1.50;;;13.10;47.50;;;;;;4929274;28;45487;-64
2023/03/12 08:09:29;;;;;;;1.57;1.40;;;13.10;47.50;;;;;;4917374;28;45333;-68
2023/03/12 08:11:54;;;;;;;2.53;1.58;;;13.10;47.50;;;;;;4926989;28;45063;-66
2023/03/12 08:14:20;;;;;;;2.13;1.53;;;13.10;47.50;;;;;;4916425;28;45213;-68
2023/03/12 08:16:45;;;;;;;1.98;1.50;;;13.10;47.40;;;;;;4921998;28;45643;-69
2023/03/12 08:19:11;;;;;;;1.70;1.30;;;13.20;47.40;;;;;;4932771;28;45360;-64
2023/03/12 08:21:36;;;;;;;1.83;1.40;;;13.20;47.40;;;;;;4931168;28;45468;-65
2023/03/12 08:24:02;;;;;;;2.13;1.60;;;13.20;47.40;;;;;;4933057;28;45579;-65
2023/03/12 08:26:28;;;;;;;1.58;1.40;;;13.20;47.30;;;;;;4929950;28;45291;-65
2023/03/12 08:28:53;;;;;;;1.60;1.20;;;13.20;47.30;;;;;;4935636;28;45185;-65
2023/03/12 08:31:19;;;;;;;1.80;1.50;;;13.20;47.40;;;;;;4921223;28;45998;-66
2023/03/12 08:33:45;;;;;;;2.10;1.60;;;13.20;47.30;;;;;;4913841;28;44951;-64
2023/03/12 08:36:11;;;;;;;2.10;1.55;;;13.20;47.30;;;;;;4926712;28;45452;-66
2023/03/12 08:38:37;;;;;;;1.37;1.27;;;13.20;47.30;;;;;;4919654;28;45730;-67
2023/03/12 08:41:03;;;;;;;1.95;1.45;;;13.20;47.30;;;;;;4930361;28;45823;-65
2023/03/12 08:43:28;;;;;;;1.60;1.30;;;13.20;47.30;;;;;;4930708;28;45719;-66
2023/03/12 08:45:58;;;;;;;1.60;1.30;;;13.20;47.30;;;;;;4926671;28;45515;-64
2023/03/12 08:48:24;;;;;;;2.00;1.35;;;13.20;47.30;;;;;;4928735;28;45560;-64
2023/03/12 08:50:50;;;;;;;2.08;1.42;;;13.20;47.30;;;;;;4930009;28;45679;-67
2023/03/12 08:53:16;;;;;;;1.75;1.55;;;13.20;47.30;;;;;;4935626;28;45245;-67
2023/03/12 08:55:42;;;;;;;2.20;1.50;;;13.20;47.30;;;;;;4927764;28;45903;-66
2023/03/12 08:58:07;;;;;;;2.30;1.40;;;13.20;47.30;;;;;;4937336;28;45576;-63
2023/03/12 09:00:33;;;;;;;1.50;1.30;;;13.20;47.30;;;;;;4928876;28;45358;-67
2023/03/12 09:02:59;;;;;;;1.60;1.23;;;13.20;47.30;;;;;;4928895;28;45272;-68
2023/03/12 09:05:26;;;;;;;1.60;1.50;;;13.20;47.30;;;;;;4928826;28;45287;-65
2023/03/12 09:07:52;;;;;;;1.98;1.52;;;13.20;47.30;;;;;;4932233;28;45375;-67
2023/03/12 09:10:18;;;;;;;1.60;1.30;;;13.20;47.20;;;;;;4921621;28;47233;-63
2023/03/12 09:12:43;;;;;;;1.73;1.40;;;13.20;47.20;;;;;;4933401;28;45961;-65
2023/03/12 09:15:10;;;;;;;1.93;1.40;;;13.20;47.20;;;;;;4933098;28;45353;-74
2023/03/12 09:17:36;;;;;;;2.38;1.60;;;13.20;47.20;;;;;;4903692;28;45245;-70
2023/03/12 09:20:05;;;;;;;1.67;1.30;;;13.20;47.20;;;;;;4932792;28;46195;-66
2023/03/12 09:22:31;;;;;;;1.88;1.40;;;13.20;47.20;;;;;;4929802;28;45350;-68
2023/03/12 09:24:56;;;;;;;1.90;1.33;;;13.20;47.20;;;;;;4911747;28;45313;-67
2023/03/12 09:27:22;;;;;;;1.67;1.30;;;13.20;47.20;;;;;;4928557;28;45299;-67
2023/03/12 09:29:50;;;;;;;2.00;1.40;;;13.20;47.20;;;;;;4933097;28;45593;-66
2023/03/12 09:32:15;;;;;;;1.80;1.40;;;13.30;47.70;;;;;;4924508;28;45355;-67
2023/03/12 09:34:41;;;;;;;1.90;1.20;;;13.30;47.80;;;;;;4930255;28;45512;-64
2023/03/12 09:37:07;;;;;;;1.60;1.30;;;13.30;47.20;;;;;;4932499;28;45567;-65
2023/03/12 09:39:33;;;;;;;1.50;1.20;;;13.30;47.20;;;;;;4930693;28;46760;-65
2023/03/12 09:41:59;;;;;;;1.83;1.45;;;13.30;47.10;;;;;;4931163;28;45706;-70
2023/03/12 09:44:42;;;;;;;1.50;1.17;;;13.30;47.10;;;;;;4914790;28;45487;-64
2023/03/12 09:47:29;;;;;;;1.70;1.42;;;13.30;47.10;;;;;;4922688;28;45429;-65
2023/03/12 09:49:58;;;;;;;1.70;1.40;;;13.30;47.10;;;;;;4927465;28;45309;-71
2023/03/12 09:52:30;;;;;;;1.85;1.40;;;13.30;47.10;;;;;;4927848;28;44772;-67
2023/03/12 09:55:06;;;;;;;1.40;1.30;;;13.30;47.10;;;;;;4930694;28;45490;-65
2023/03/12 09:57:31;;;;;;;1.70;1.30;;;13.30;47.00;;;;;;4930205;28;45251;-65
2023/03/12 09:59:57;;;;;;;1.85;1.38;;;13.30;47.00;;;;;;4932618;28;45346;-65
2023/03/12 10:02:48;;;;;;;1.47;1.30;;;13.40;47.00;;;;;;4919186;28;45209;-71
2023/03/12 10:05:51;;;;;;;1.52;1.38;;;13.40;47.10;;;;;;4923059;28;45540;-68
2023/03/12 10:08:34;;;;;;;1.38;1.02;;;13.30;47.00;;;;;;4935079;28;45171;-66
2023/03/12 10:11:06;;;;;;;1.83;1.38;;;13.30;47.00;;;;;;4928106;28;46023;-68
2023/03/12 10:13:32;;;;;;;1.25;1.15;;;13.30;47.00;;;;;;4932936;28;45579;-70
2023/03/12 10:16:04;;;;;;;1.48;1.30;;;13.40;47.00;;;;;;4917715;28;45554;-65
2023/03/12 10:19:02;;;;;;;1.58;1.30;;;13.30;47.00;;;;;;4929217;28;45244;-67
2023/03/12 10:21:43;;;;;;;1.50;1.20;;;13.30;47.00;;;;;;4924812;28;47520;-66
2023/03/12 10:24:44;;;;;;;1.60;1.30;;;13.40;47.00;;;;;;4911827;28;45371;-65
2023/03/12 10:27:13;;;;;;;1.80;1.25;;;13.30;47.50;;;;;;4927228;28;45282;-67
2023/03/12 10:29:40;;;;;;;1.60;1.30;;;13.40;47.00;;;;;;4933095;28;46630;-63
2023/03/12 10:32:39;;;;;;;1.73;1.52;;;13.40;47.00;;;;;;4904902;28;45160;-70
2023/03/12 10:35:13;;;;;;;1.77;1.20;;;13.30;46.90;;;;;;4921610;28;45719;-68
2023/03/12 10:37:55;;;;;;;2.10;1.40;;;13.40;46.90;;;;;;4927087;28;46076;-71
2023/03/12 10:40:23;;;;;;;1.55;1.23;;;13.40;47.00;;;;;;4924876;28;45077;-67
2023/03/12 10:42:49;;;;;;;1.35;1.10;;;13.40;47.00;;;;;;4915079;28;46002;-69
2023/03/12 10:45:41;;;;;;;1.60;1.33;;;13.40;46.90;;;;;;4921806;28;45767;-71
2023/03/12 10:48:16;;;;;;;1.90;1.38;;;13.40;46.90;;;;;;4912160;28;45220;-66
2023/03/12 10:50:42;;;;;;;2.00;1.50;;;13.40;46.90;;;;;;4912883;28;44783;-67
2023/03/12 10:53:22;;;;;;;1.48;1.10;;;13.40;46.90;;;;;;4932131;28;46123;-68
2023/03/12 10:56:08;;;;;;;1.53;1.40;;;13.40;47.00;;;;;;4914736;28;45227;-68
2023/03/12 10:58:39;;;;;;;2.03;1.40;;;13.40;47.00;;;;;;4929611;28;45537;-67
2023/03/12 11:01:14;;;;;;;1.27;1.15;;;13.40;47.00;;;;;;4925494;28;45513;-71
2023/03/12 11:03:41;;;;;;;2.07;1.47;;;13.40;47.50;;;;;;4939002;28;45789;-69
2023/03/12 11:06:07;;;;;;;2.03;1.50;;;13.40;47.00;;;;;;4923157;28;44823;-72
2023/03/12 11:08:37;;;;;;;1.98;1.10;;;13.40;47.00;;;;;;4929602;28;46808;-70
2023/03/12 11:11:03;;;;;;;1.65;1.30;;;13.40;47.00;;;;;;4926594;28;45799;-67
2023/03/12 11:13:38;;;;;;;1.70;1.30;;;13.40;47.00;;;;;;4930391;28;46402;-65
2023/03/12 11:16:16;;;;;;;1.40;1.00;;;13.30;46.90;;;;;;4927482;28;45182;-67
2023/03/12 11:19:00;;;;;;;1.60;1.27;;;13.40;46.90;;;;;;4930107;28;45954;-68
2023/03/12 11:21:25;;;;;;;2.17;1.37;;;13.30;47.00;;;;;;4925810;28;45426;-67
2023/03/12 11:23:57;;;;;;;1.50;1.15;;;13.40;47.00;;;;;;4934780;28;45983;-63
2023/03/12 11:26:24;;;;;;;1.25;1.10;;;13.30;47.00;;;;;;4931211;28;45690;-66
2023/03/12 11:28:51;;;;;;;1.73;1.33;;;13.40;46.90;;;;;;4934570;28;45111;-66
2023/03/12 11:31:29;;;;;;;1.55;1.40;;;13.30;47.00;;;;;;4931107;28;44759;-65
2023/03/12 11:33:58;;;;;;;1.75;1.38;;;13.30;47.00;;;;;;4932047;28;45879;-65
2023/03/12 11:36:27;;;;;;;1.60;1.17;;;13.30;46.90;;;;;;4928485;28;45717;-65
2023/03/12 11:39:11;;;;;;;2.08;1.30;;;13.40;47.00;;;;;;4936188;28;44851;-73
2023/03/12 11:42:06;;;;;;;1.15;1.05;;;13.40;47.00;;;;;;4937097;28;45343;-64
2023/03/12 11:44:51;;;;;;;1.13;1.00;;;13.30;47.50;;;;;;4915818;28;47071;-65
2023/03/12 11:48:15;;;;;;;1.10;1.00;;;13.30;46.90;;;;;;4921774;28;45367;-66
2023/03/12 11:51:00;;;;;;;1.50;1.20;;;13.40;46.90;;;;;;4890782;28;45574;-67
2023/03/12 11:53:41;;;;;;;1.35;1.00;;;13.40;46.90;;;;;;4927995;28;46237;-64
2023/03/12 11:56:23;;;;;;;1.50;1.20;;;13.40;46.90;;;;;;4931576;28;45261;-64
2023/03/12 11:58:58;;;;;;;1.40;1.07;;;13.40;47.00;;;;;;4920902;28;45712;-65
2023/03/12 12:01:43;;;;;;;1.70;1.30;;;13.30;46.90;;;;;;4909533;28;45084;-64
2023/03/12 12:04:23;;;;;;;1.40;1.10;;;13.40;47.00;;;;;;4930659;28;44943;-65
2023/03/12 12:07:02;;;;;;;1.13;1.03;;;13.40;47.00;;;;;;4922309;28;45740;-66
2023/03/12 12:09:50;;;;;;;1.20;0.90;;;13.30;47.00;;;;;;4931873;28;45222;-64
2023/03/12 12:12:32;;;;;;;1.52;1.30;;;13.40;47.00;;;;;;4926435;28;45219;-65
2023/03/12 12:15:10;;;;;;;1.92;1.40;;;13.40;47.00;;;;;;4920255;28;45801;-68
2023/03/12 12:17:41;;;;;;;1.70;1.13;;;13.40;47.00;;;;;;4926077;28;45523;-67
2023/03/12 12:20:25;;;;;;;1.40;1.10;;;13.40;47.00;;;;;;4931107;28;45396;-72
2023/03/12 12:23:13;;;;;;;1.33;1.13;;;13.40;47.00;;;;;;4935423;28;45283;-67
2023/03/12 12:25:56;;;;;;;1.30;1.20;;;13.40;47.00;;;;;;4928090;28;45304;-64
2023/03/12 12:28:43;;;;;;;2.03;1.45;;;13.30;47.00;;;;;;4935660;28;46157;-65
2023/03/12 12:31:30;;;;;;;1.20;1.00;;;13.30;47.00;;;;;;4922572;28;45631;-68
2023/03/12 12:34:37;;;;;;;1.27;1.00;;;13.40;47.00;;;;;;4927596;28;45446;-67
2023/03/12 12:37:41;;;;;;;1.50;1.20;;;13.40;47.00;;;;;;4851408;29;45692;-67
2023/03/12 12:40:10;;;;;;;1.52;1.10;;;13.30;47.00;;;;;;4934548;28;46621;-75
2023/03/12 12:43:06;;;;;;;1.25;1.00;;;13.30;47.00;;;;;;4932212;28;45602;-67
2023/03/12 12:45:32;;;;;;;1.40;1.15;;;13.30;47.00;;;;;;4895050;28;44836;-65
2023/03/12 12:48:10;;;;;;;1.60;1.20;;;13.40;47.00;;;;;;4935853;28;45450;-64
2023/03/12 12:50:37;;;;;;;1.35;1.20;;;13.40;46.90;;;;;;4923161;28;45996;-73
2023/03/12 12:53:11;;;;;;;1.20;1.10;;;13.40;47.00;;;;;;4914779;28;45430;-65
2023/03/12 12:55:53;;;;;;;1.40;1.20;;;13.40;46.90;;;;;;4929303;28;45287;-70
2023/03/12 12:58:22;;;;;;;1.83;1.25;;;13.40;46.90;;;;;;4928884;28;44817;-64
2023/03/12 13:00:55;;;;;;;1.88;1.25;;;13.40;46.90;;;;;;4922326;28;46696;-70
2023/03/12 13:03:22;;;;;;;1.40;1.23;;;13.40;47.00;;;;;;4925305;28;45501;-66
2023/03/12 13:05:56;;;;;;;1.30;1.10;;;13.30;46.90;;;;;;4926243;28;45272;-64
2023/03/12 13:08:54;;;;;;;1.27;1.00;;;13.30;46.90;;;;;;4927599;28;45526;-65
2023/03/12 13:11:25;;;;;;;1.50;1.10;;;13.40;46.90;;;;;;4909819;28;45799;-71
2023/03/12 13:14:03;;;;;;;1.67;1.35;;;13.40;46.90;;;;;;4914625;28;44664;-63
2023/03/12 13:16:47;;;;;;;1.30;1.08;;;13.40;46.90;;;;;;4923749;28;45290;-68
2023/03/12 13:19:13;;;;;;;1.55;1.20;;;13.40;46.90;;;;;;4910401;28;45292;-68
2023/03/12 13:21:39;;;;;;;1.75;1.20;;;13.30;46.90;;;;;;4924353;28;46161;-70
2023/03/12 13:24:20;;;;;;;1.70;1.23;;;13.40;46.90;;;;;;4930358;28;45544;-67
2023/03/12 13:26:46;;;;;;;1.25;1.10;;;13.40;46.90;;;;;;4930923;28;45193;-66
2023/03/12 13:29:20;;;;;;;1.33;1.00;;;13.40;46.90;;;;;;4936822;28;45142;-66
2023/03/12 13:31:46;;;;;;;1.40;1.15;;;13.40;46.90;;;;;;4924272;28;45436;-65
2023/03/12 13:34:17;;;;;;;1.50;1.10;;;13.30;46.90;;;;;;4915523;28;45732;-70
2023/03/12 13:36:44;;;;;;;1.25;1.08;;;13.40;46.90;;;;;;4930107;28;44919;-65
2023/03/12 13:39:16;;;;;;;1.08;0.90;;;13.40;46.90;;;;;;4919193;28;45477;-65
2023/03/12 13:41:53;;;;;;;1.30;0.90;;;13.40;47.00;;;;;;4926257;28;45970;-64
2023/03/12 13:44:22;;;;;;;1.38;1.10;;;13.30;47.00;;;;;;4933173;28;46531;-68
2023/03/12 13:47:07;;;;;;;1.27;0.90;;;13.40;47.00;;;;;;4925662;28;45243;-65
2023/03/12 13:49:44;;;;;;;1.57;1.10;;;13.40;46.90;;;;;;4920772;28;45233;-66
2023/03/12 13:52:24;;;;;;;1.30;1.10;;;13.40;46.90;;;;;;4926629;28;45128;-67
2023/03/12 13:55:06;;;;;;;1.40;1.27;;;13.40;47.00;;;;;;4916070;28;45292;-67
2023/03/12 13:57:38;;;;;;;1.17;1.00;;;13.30;46.90;;;;;;4932556;28;44662;-66
2023/03/12 14:00:15;;;;;;;1.67;1.10;;;13.30;46.90;;;;;;4935551;28;45155;-70
2023/03/12 14:03:00;;;;;;;1.37;1.10;;;13.40;46.90;;;;;;4929278;28;47132;-68
2023/03/12 14:05:27;;;;;;;1.17;0.93;;;13.40;46.90;;;;;;4925748;28;44946;-65
2023/03/12 14:08:09;;;;;;;1.60;1.10;;;13.30;46.90;;;;;;4934241;28;45474;-66
2023/03/12 14:10:53;;;;;;;1.70;1.20;;;13.30;46.90;;;;;;4927953;28;45571;-66
2023/03/12 14:13:28;;;;;;;1.17;1.05;;;13.40;46.90;;;;;;4932777;28;45317;-65
2023/03/12 14:16:13;;;;;;;1.33;1.20;;;13.40;46.80;;;;;;4909105;28;45186;-64
2023/03/12 14:18:38;;;;;;;1.20;1.10;;;13.40;46.90;;;;;;4929197;28;45692;-65
2023/03/12 14:21:07;;;;;;;1.02;0.90;;;13.40;46.90;;;;;;4925455;28;45377;-65
2023/03/12 14:23:35;;;;;;;1.23;1.13;;;13.40;46.90;;;;;;4916733;28;45939;-65
2023/03/12 14:26:02;;;;;;;1.27;1.00;;;13.40;46.90;;;;;;4926789;28;45161;-66
2023/03/12 14:28:28;;;;;;;1.15;1.00;;;13.40;46.90;;;;;;4939291;28;45275;-66
2023/03/12 14:31:01;;;;;;;1.10;0.88;;;13.40;46.90;;;;;;4926461;28;45312;-63
2023/03/12 14:33:34;;;;;;;1.50;1.10;;;13.40;46.90;;;;;;4914600;28;45662;-66
2023/03/12 14:36:04;;;;;;;1.25;1.02;;;13.40;46.90;;;;;;4931217;28;44763;-64
2023/03/12 14:38:33;;;;;;;1.20;1.00;;;13.40;46.90;;;;;;4935534;28;44920;-66
2023/03/12 14:41:32;;;;;;;1.40;1.10;;;13.40;46.80;;;;;;4913931;28;45134;-65
2023/03/12 14:44:22;;;;;;;1.05;0.90;;;13.40;46.90;;;;;;4934363;28;45918;-61
2023/03/12 14:47:06;;;;;;;1.02;0.80;;;13.40;46.90;;;;;;4909872;28;45065;-65
2023/03/12 14:49:38;;;;;;;1.67;1.05;;;13.30;46.90;;;;;;4933358;28;45117;-66
2023/03/12 14:52:04;;;;;;;1.33;1.10;;;13.30;46.90;;;;;;4930548;28;45439;-62
2023/03/12 14:54:29;;;;;;;2.00;1.10;;;13.40;46.90;;;;;;4935415;28;45954;-61
2023/03/12 14:56:55;;;;;;;1.13;1.03;;;13.30;46.90;;;;;;4931689;28;45297;-67
2023/03/12 14:59:31;;;;;;;1.10;1.00;;;13.40;46.90;;;;;;4934891;28;45324;-70
2023/03/12 15:02:03;;;;;;;1.10;1.00;;;13.40;46.90;;;;;;4927764;28;46028;-62
2023/03/12 15:04:28;;;;;;;0.80;0.80;;;13.40;46.90;;;;;;4933663;28;46030;-64
2023/03/12 15:06:55;;;;;;;0.80;0.80;;;13.40;46.90;;;;;;4917246;28;45212;-64
2023/03/12 15:09:26;;;;;;;1.45;1.17;;;13.40;46.90;;;;;;4942305;28;45508;-69
2023/03/12 15:11:56;;;;;;;1.10;1.00;;;13.40;46.80;;;;;;4924737;28;46145;-68
2023/03/12 15:14:22;;;;;;;1.20;1.00;;;13.40;46.80;;;;;;4932224;28;45356;-66
2023/03/12 15:16:48;;;;;;;1.17;0.93;;;13.40;46.90;;;;;;4913236;28;45239;-65
2023/03/12 15:19:15;;;;;;;1.27;1.05;;;13.40;46.80;;;;;;4934238;28;45831;-63
2023/03/12 15:21:41;;;;;;;1.15;0.90;;;13.40;46.80;;;;;;4926727;28;45355;-65
2023/03/12 15:24:08;;;;;;;0.77;0.73;;;13.40;46.80;;;;;;4932522;28;45695;-65
2023/03/12 15:26:36;;;;;;;1.10;1.00;;;13.40;46.90;;;;;;4926919;28;45409;-65
2023/03/12 15:29:13;;;;;;;1.30;0.97;;;13.40;46.90;;;;;;4935487;28;45536;-64
2023/03/12 15:31:48;;;;;;;1.10;1.00;;;13.40;46.90;;;;;;4926646;28;45312;-69
2023/03/12 15:34:27;;;;;;;0.97;0.90;;;13.40;46.90;;;;;;4937463;28;44861;-66
2023/03/12 15:36:53;;;;;;;1.30;1.00;;;13.40;46.80;;;;;;4929226;28;45101;-71
2023/03/12 15:39:22;;;;;;;1.30;1.00;;;13.40;46.90;;;;;;4935602;28;45331;-68
2023/03/12 15:41:48;;;;;;;0.85;0.82;;;13.40;46.90;;;;;;4928938;28;45895;-66
2023/03/12 15:44:17;;;;;;;1.00;0.82;;;13.40;46.90;;;;;;4932866;28;45987;-65
2023/03/12 15:46:56;;;;;;;1.30;0.93;;;13.40;46.90;;;;;;4909339;28;44631;-65
2023/03/12 15:49:26;;;;;;;1.17;1.00;;;13.40;46.90;;;;;;4913083;28;45351;-71
2023/03/12 15:52:05;;;;;;;1.33;1.00;;;13.40;46.80;;;;;;4920719;28;45471;-66
2023/03/12 15:54:31;;;;;;;1.10;0.93;;;13.40;46.90;;;;;;4934490;28;47187;-66
2023/03/12 15:57:20;;;;;;;0.90;0.80;;;13.40;46.90;;;;;;4929244;28;45395;-67
2023/03/12 15:59:51;;;;;;;1.38;1.10;;;13.40;46.90;;;;;;4929082;28;44723;-68
2023/03/12 16:02:33;;;;;;;1.15;1.05;;;13.40;46.90;;;;;;4923446;28;45503;-65
2023/03/12 16:04:58;;;;;;;1.10;1.00;;;13.40;46.90;;;;;;4933620;28;45172;-66
2023/03/12 16:07:24;;;;;;;0.82;0.77;;;13.30;46.80;;;;;;4929553;28;45432;-67
2023/03/12 16:09:50;;;;;;;1.00;0.90;;;13.40;46.90;;;;;;4916900;28;45570;-65
2023/03/12 16:12:15;;;;;;;1.23;1.03;;;13.40;46.90;;;;;;4928469;28;45635;-71
2023/03/12 16:14:41;;;;;;;1.40;1.20;;;13.40;46.90;;;;;;4925912;28;45359;-67
2023/03/12 16:17:11;;;;;;;1.15;1.00;;;13.40;46.90;;;;;;4923107;28;45390;-65
2023/03/12 16:19:37;;;;;;;1.02;0.90;;;13.40;46.90;;;;;;4906422;28;45384;-71
2023/03/12 16:22:02;;;;;;;1.13;0.90;;;13.40;46.90;;;;;;4928274;28;45304;-68
2023/03/12 16:24:28;;;;;;;1.00;0.90;;;13.40;46.90;;;;;;4934424;28;45207;-65
2023/03/12 16:26:55;;;;;;;1.10;0.97;;;13.40;46.90;;;;;;4927960;28;45727;-65
2023/03/12 16:29:21;;;;;;;0.98;0.88;;;13.40;46.90;;;;;;4934413;28;45382;-72
2023/03/12 16:31:52;;;;;;;1.10;0.90;;;13.40;46.90;;;;;;4925742;28;45877;-65
2023/03/12 16:34:18;;;;;;;1.10;0.90;;;13.40;46.90;;;;;;4934010;28;45739;-64
2023/03/12 16:36:43;;;;;;;1.40;1.00;;;13.40;46.90;;;;;;4927846;28;45400;-66
2023/03/12 16:39:09;;;;;;;0.93;0.80;;;13.40;46.90;;;;;;4928462;28;45079;-67
2023/03/12 16:41:35;;;;;;;1.23;0.93;;;13.40;46.90;;;;;;4926036;28;45272;-63
2023/03/12 16:44:00;;;;;;;1.10;0.83;;;13.40;46.90;;;;;;4915486;28;45660;-68
2023/03/12 16:46:29;;;;;;;1.00;0.93;;;13.40;46.90;;;;;;4923922;28;45250;-67
2023/03/12 16:48:55;;;;;;;1.00;0.90;;;13.40;46.90;;;;;;4903142;28;45353;-67
2023/03/12 16:51:20;;;;;;;1.10;0.90;;;13.40;46.90;;;;;;4923326;28;45422;-72
2023/03/12 16:53:46;;;;;;;0.70;0.70;;;13.40;46.90;;;;;;4927836;28;46064;-68
2023/03/12 16:56:22;;;;;;;1.07;1.00;;;13.40;46.90;;;;;;4926927;28;45206;-69
2023/03/12 16:58:48;;;;;;;0.95;0.90;;;13.40;46.90;;;;;;4935511;28;45116;-66
2023/03/12 17:01:15;;;;;;;1.30;1.05;;;13.40;46.90;;;;;;4919223;28;45290;-68
2023/03/12 17:03:44;;;;;;;1.00;0.80;;;13.40;46.90;;;;;;4928074;28;45369;-68
2023/03/12 17:06:14;;;;;;;1.40;1.00;;;13.40;46.90;;;;;;4925653;28;45336;-67